sensor_id;sensor_type;location;lat;lon;timestamp;P1;durP1;ratioP1;P2;durP2;ratioP2
60612;SDS011;46443;59.792;17.626;2023-04-16T00:01:18;4.78;;;2.63;;
60612;SDS011;46443;59.792;17.626;2023-04-16T00:03:44;5.45;;;2.70;;
60612;SDS011;46443;59.792;17.626;2023-04-16T00:06:10;5.18;;;2.80;;
60612;SDS011;46443;59.792;17.626;2023-04-16T00:08:36;5.28;;;2.88;;
60612;SDS011;46443;59.792;17.626;2023-04-16T00:11:04;4.65;;;2.80;;
60612;SDS011;46443;59.792;17.626;2023-04-16T00:13:30;5.80;;;2.80;;
60612;SDS011;46443;59.792;17.626;2023-04-16T00:15:56;7.50;;;3.20;;
60612;SDS011;46443;59.792;17.626;2023-04-16T00:18:23;7.82;;;2.67;;
60612;SDS011;46443;59.792;17.626;2023-04-16T00:20:50;6.63;;;3.30;;
60612;SDS011;46443;59.792;17.626;2023-04-16T00:23:18;5.55;;;2.53;;
60612;SDS011;46443;59.792;17.626;2023-04-16T00:25:45;4.43;;;2.70;;
60612;SDS011;46443;59.792;17.626;2023-04-16T00:28:11;6.07;;;2.65;;
60612;SDS011;46443;59.792;17.626;2023-04-16T00:30:37;4.30;;;2.63;;
60612;SDS011;46443;59.792;17.626;2023-04-16T00:33:03;8.35;;;3.45;;
60612;SDS011;46443;59.792;17.626;2023-04-16T00:35:30;5.88;;;2.85;;
60612;SDS011;46443;59.792;17.626;2023-04-16T00:37:56;8.95;;;2.75;;
60612;SDS011;46443;59.792;17.626;2023-04-16T00:40:23;6.47;;;3.30;;
60612;SDS011;46443;59.792;17.626;2023-04-16T00:42:51;5.57;;;2.78;;
60612;SDS011;46443;59.792;17.626;2023-04-16T00:45:17;6.05;;;3.40;;
60612;SDS011;46443;59.792;17.626;2023-04-16T00:47:44;10.25;;;3.58;;
60612;SDS011;46443;59.792;17.626;2023-04-16T00:50:10;7.72;;;2.80;;
60612;SDS011;46443;59.792;17.626;2023-04-16T00:52:37;6.50;;;3.10;;
60612;SDS011;46443;59.792;17.626;2023-04-16T00:55:03;6.90;;;2.83;;
60612;SDS011;46443;59.792;17.626;2023-04-16T00:57:30;6.40;;;2.85;;
60612;SDS011;46443;59.792;17.626;2023-04-16T00:59:56;5.57;;;2.97;;
60612;SDS011;46443;59.792;17.626;2023-04-16T01:02:22;5.88;;;3.03;;
60612;SDS011;46443;59.792;17.626;2023-04-16T01:04:49;5.72;;;2.63;;
60612;SDS011;46443;59.792;17.626;2023-04-16T01:07:15;6.57;;;3.70;;
60612;SDS011;46443;59.792;17.626;2023-04-16T01:09:41;6.18;;;2.85;;
60612;SDS011;46443;59.792;17.626;2023-04-16T01:12:08;5.63;;;3.40;;
60612;SDS011;46443;59.792;17.626;2023-04-16T01:14:34;5.88;;;3.25;;
60612;SDS011;46443;59.792;17.626;2023-04-16T01:17:01;6.40;;;3.20;;
60612;SDS011;46443;59.792;17.626;2023-04-16T01:19:27;7.30;;;3.05;;
60612;SDS011;46443;59.792;17.626;2023-04-16T01:21:55;8.00;;;3.13;;
60612;SDS011;46443;59.792;17.626;2023-04-16T01:24:21;7.00;;;3.63;;
60612;SDS011;46443;59.792;17.626;2023-04-16T01:26:47;8.20;;;4.07;;
60612;SDS011;46443;59.792;17.626;2023-04-16T01:29:13;7.82;;;3.25;;
60612;SDS011;46443;59.792;17.626;2023-04-16T01:31:39;6.10;;;3.28;;
60612;SDS011;46443;59.792;17.626;2023-04-16T01:34:05;6.95;;;3.20;;
60612;SDS011;46443;59.792;17.626;2023-04-16T01:36:31;10.35;;;3.63;;
60612;SDS011;46443;59.792;17.626;2023-04-16T01:38:57;8.43;;;3.65;;
60612;SDS011;46443;59.792;17.626;2023-04-16T01:41:24;7.07;;;3.53;;
60612;SDS011;46443;59.792;17.626;2023-04-16T01:43:50;7.20;;;3.38;;
60612;SDS011;46443;59.792;17.626;2023-04-16T01:46:20;9.15;;;3.35;;
60612;SDS011;46443;59.792;17.626;2023-04-16T01:48:48;8.55;;;2.90;;
60612;SDS011;46443;59.792;17.626;2023-04-16T01:51:14;6.38;;;3.00;;
60612;SDS011;46443;59.792;17.626;2023-04-16T01:53:40;6.78;;;3.25;;
60612;SDS011;46443;59.792;17.626;2023-04-16T01:56:06;5.45;;;3.22;;
60612;SDS011;46443;59.792;17.626;2023-04-16T01:58:33;6.18;;;3.00;;
60612;SDS011;46443;59.792;17.626;2023-04-16T02:00:59;5.70;;;3.25;;
60612;SDS011;46443;59.792;17.626;2023-04-16T02:03:25;6.40;;;3.08;;
60612;SDS011;46443;59.792;17.626;2023-04-16T02:05:51;5.93;;;3.40;;
60612;SDS011;46443;59.792;17.626;2023-04-16T02:08:17;7.55;;;3.03;;
60612;SDS011;46443;59.792;17.626;2023-04-16T02:10:46;6.10;;;3.75;;
60612;SDS011;46443;59.792;17.626;2023-04-16T02:13:13;7.28;;;3.33;;
60612;SDS011;46443;59.792;17.626;2023-04-16T02:15:43;6.55;;;3.25;;
60612;SDS011;46443;59.792;17.626;2023-04-16T02:18:09;6.25;;;3.40;;
60612;SDS011;46443;59.792;17.626;2023-04-16T02:20:38;7.97;;;4.05;;
60612;SDS011;46443;59.792;17.626;2023-04-16T02:23:04;8.52;;;3.65;;
60612;SDS011;46443;59.792;17.626;2023-04-16T02:25:30;6.50;;;3.58;;
60612;SDS011;46443;59.792;17.626;2023-04-16T02:27:57;8.35;;;3.92;;
60612;SDS011;46443;59.792;17.626;2023-04-16T02:30:23;6.95;;;3.38;;
60612;SDS011;46443;59.792;17.626;2023-04-16T02:32:49;10.73;;;3.60;;
60612;SDS011;46443;59.792;17.626;2023-04-16T02:35:15;6.38;;;3.65;;
60612;SDS011;46443;59.792;17.626;2023-04-16T02:37:41;9.45;;;3.50;;
60612;SDS011;46443;59.792;17.626;2023-04-16T02:40:07;7.28;;;3.95;;
60612;SDS011;46443;59.792;17.626;2023-04-16T02:42:33;5.60;;;3.33;;
60612;SDS011;46443;59.792;17.626;2023-04-16T02:44:59;9.65;;;3.63;;
60612;SDS011;46443;59.792;17.626;2023-04-16T02:47:25;6.10;;;3.60;;
60612;SDS011;46443;59.792;17.626;2023-04-16T02:49:51;9.45;;;3.55;;
60612;SDS011;46443;59.792;17.626;2023-04-16T02:52:17;6.13;;;3.50;;
60612;SDS011;46443;59.792;17.626;2023-04-16T02:54:43;6.97;;;3.15;;
60612;SDS011;46443;59.792;17.626;2023-04-16T02:57:10;10.38;;;3.80;;
60612;SDS011;46443;59.792;17.626;2023-04-16T02:59:36;7.15;;;3.83;;
60612;SDS011;46443;59.792;17.626;2023-04-16T03:02:02;7.70;;;3.78;;
60612;SDS011;46443;59.792;17.626;2023-04-16T03:04:28;7.47;;;4.00;;
60612;SDS011;46443;59.792;17.626;2023-04-16T03:06:54;8.32;;;3.95;;
60612;SDS011;46443;59.792;17.626;2023-04-16T03:09:20;6.82;;;3.75;;
60612;SDS011;46443;59.792;17.626;2023-04-16T03:11:46;8.35;;;4.07;;
60612;SDS011;46443;59.792;17.626;2023-04-16T03:14:12;7.10;;;4.55;;
60612;SDS011;46443;59.792;17.626;2023-04-16T03:16:38;7.05;;;3.42;;
60612;SDS011;46443;59.792;17.626;2023-04-16T03:19:04;7.20;;;3.85;;
60612;SDS011;46443;59.792;17.626;2023-04-16T03:21:30;7.38;;;3.92;;
60612;SDS011;46443;59.792;17.626;2023-04-16T03:23:57;5.63;;;3.30;;
60612;SDS011;46443;59.792;17.626;2023-04-16T03:26:23;8.57;;;3.88;;
60612;SDS011;46443;59.792;17.626;2023-04-16T03:28:49;6.43;;;3.05;;
60612;SDS011;46443;59.792;17.626;2023-04-16T03:31:15;7.35;;;3.63;;
60612;SDS011;46443;59.792;17.626;2023-04-16T03:33:41;9.38;;;4.07;;
60612;SDS011;46443;59.792;17.626;2023-04-16T03:36:07;8.88;;;4.13;;
60612;SDS011;46443;59.792;17.626;2023-04-16T03:38:34;9.95;;;4.10;;
60612;SDS011;46443;59.792;17.626;2023-04-16T03:41:00;9.32;;;4.43;;
60612;SDS011;46443;59.792;17.626;2023-04-16T03:43:26;7.57;;;4.07;;
60612;SDS011;46443;59.792;17.626;2023-04-16T03:45:52;6.20;;;3.67;;
60612;SDS011;46443;59.792;17.626;2023-04-16T03:48:18;8.73;;;4.68;;
60612;SDS011;46443;59.792;17.626;2023-04-16T03:50:44;7.68;;;4.25;;
60612;SDS011;46443;59.792;17.626;2023-04-16T03:53:11;8.80;;;4.07;;
60612;SDS011;46443;59.792;17.626;2023-04-16T03:55:37;8.13;;;4.10;;
60612;SDS011;46443;59.792;17.626;2023-04-16T03:58:03;9.15;;;4.38;;
60612;SDS011;46443;59.792;17.626;2023-04-16T04:00:29;10.05;;;4.30;;
60612;SDS011;46443;59.792;17.626;2023-04-16T04:02:56;8.20;;;3.92;;
60612;SDS011;46443;59.792;17.626;2023-04-16T04:05:22;7.78;;;4.20;;
60612;SDS011;46443;59.792;17.626;2023-04-16T04:07:48;9.50;;;4.70;;
60612;SDS011;46443;59.792;17.626;2023-04-16T04:10:14;9.82;;;4.72;;
60612;SDS011;46443;59.792;17.626;2023-04-16T04:12:41;7.80;;;4.00;;
60612;SDS011;46443;59.792;17.626;2023-04-16T04:15:07;9.63;;;4.70;;
60612;SDS011;46443;59.792;17.626;2023-04-16T04:17:33;10.73;;;5.03;;
60612;SDS011;46443;59.792;17.626;2023-04-16T04:19:59;8.20;;;4.13;;
60612;SDS011;46443;59.792;17.626;2023-04-16T04:22:25;10.68;;;4.43;;
60612;SDS011;46443;59.792;17.626;2023-04-16T04:24:51;8.68;;;4.35;;
60612;SDS011;46443;59.792;17.626;2023-04-16T04:27:17;9.40;;;4.47;;
60612;SDS011;46443;59.792;17.626;2023-04-16T04:29:43;8.88;;;4.53;;
60612;SDS011;46443;59.792;17.626;2023-04-16T04:32:10;7.95;;;4.22;;
60612;SDS011;46443;59.792;17.626;2023-04-16T04:34:36;8.05;;;3.90;;
60612;SDS011;46443;59.792;17.626;2023-04-16T04:37:02;9.07;;;4.80;;
60612;SDS011;46443;59.792;17.626;2023-04-16T04:39:28;8.80;;;4.88;;
60612;SDS011;46443;59.792;17.626;2023-04-16T04:41:54;8.40;;;5.05;;
60612;SDS011;46443;59.792;17.626;2023-04-16T04:44:22;8.93;;;4.43;;
60612;SDS011;46443;59.792;17.626;2023-04-16T04:46:48;9.45;;;4.78;;
60612;SDS011;46443;59.792;17.626;2023-04-16T04:49:14;8.82;;;4.30;;
60612;SDS011;46443;59.792;17.626;2023-04-16T04:51:40;8.68;;;4.13;;
60612;SDS011;46443;59.792;17.626;2023-04-16T04:54:06;9.65;;;4.45;;
60612;SDS011;46443;59.792;17.626;2023-04-16T04:56:32;9.93;;;4.72;;
60612;SDS011;46443;59.792;17.626;2023-04-16T04:58:58;9.35;;;5.10;;
60612;SDS011;46443;59.792;17.626;2023-04-16T05:01:24;9.68;;;4.30;;
60612;SDS011;46443;59.792;17.626;2023-04-16T05:03:50;9.95;;;4.78;;
60612;SDS011;46443;59.792;17.626;2023-04-16T05:06:16;9.95;;;4.80;;
60612;SDS011;46443;59.792;17.626;2023-04-16T05:08:42;8.40;;;4.43;;
60612;SDS011;46443;59.792;17.626;2023-04-16T05:11:10;7.47;;;3.90;;
60612;SDS011;46443;59.792;17.626;2023-04-16T05:13:36;9.98;;;4.75;;
60612;SDS011;46443;59.792;17.626;2023-04-16T05:16:02;7.38;;;4.40;;
60612;SDS011;46443;59.792;17.626;2023-04-16T05:18:28;7.78;;;4.93;;
60612;SDS011;46443;59.792;17.626;2023-04-16T05:20:54;7.80;;;4.38;;
60612;SDS011;46443;59.792;17.626;2023-04-16T05:23:20;9.57;;;4.43;;
60612;SDS011;46443;59.792;17.626;2023-04-16T05:25:46;9.77;;;4.93;;
60612;SDS011;46443;59.792;17.626;2023-04-16T05:28:12;9.00;;;4.88;;
60612;SDS011;46443;59.792;17.626;2023-04-16T05:30:38;8.93;;;4.85;;
60612;SDS011;46443;59.792;17.626;2023-04-16T05:33:04;8.23;;;4.25;;
60612;SDS011;46443;59.792;17.626;2023-04-16T05:35:30;7.10;;;4.55;;
60612;SDS011;46443;59.792;17.626;2023-04-16T05:37:56;9.35;;;4.90;;
60612;SDS011;46443;59.792;17.626;2023-04-16T05:40:22;7.00;;;4.20;;
60612;SDS011;46443;59.792;17.626;2023-04-16T05:42:51;10.48;;;4.85;;
60612;SDS011;46443;59.792;17.626;2023-04-16T05:45:17;8.13;;;4.53;;
60612;SDS011;46443;59.792;17.626;2023-04-16T05:47:43;7.22;;;4.18;;
60612;SDS011;46443;59.792;17.626;2023-04-16T05:50:09;8.88;;;4.18;;
60612;SDS011;46443;59.792;17.626;2023-04-16T05:52:35;7.95;;;4.25;;
60612;SDS011;46443;59.792;17.626;2023-04-16T05:55:01;8.88;;;4.65;;
60612;SDS011;46443;59.792;17.626;2023-04-16T05:57:27;8.13;;;4.35;;
60612;SDS011;46443;59.792;17.626;2023-04-16T05:59:54;8.57;;;4.63;;
60612;SDS011;46443;59.792;17.626;2023-04-16T06:02:20;8.25;;;4.13;;
60612;SDS011;46443;59.792;17.626;2023-04-16T06:04:46;7.95;;;3.60;;
60612;SDS011;46443;59.792;17.626;2023-04-16T06:07:13;6.93;;;4.13;;
60612;SDS011;46443;59.792;17.626;2023-04-16T06:09:39;6.93;;;4.15;;
60612;SDS011;46443;59.792;17.626;2023-04-16T06:12:06;7.88;;;4.35;;
60612;SDS011;46443;59.792;17.626;2023-04-16T06:14:32;8.05;;;3.80;;
60612;SDS011;46443;59.792;17.626;2023-04-16T06:16:58;5.80;;;3.75;;
60612;SDS011;46443;59.792;17.626;2023-04-16T06:19:24;6.38;;;3.78;;
60612;SDS011;46443;59.792;17.626;2023-04-16T06:21:50;9.20;;;4.35;;
60612;SDS011;46443;59.792;17.626;2023-04-16T06:24:16;7.93;;;3.85;;
60612;SDS011;46443;59.792;17.626;2023-04-16T06:26:42;6.60;;;4.05;;
60612;SDS011;46443;59.792;17.626;2023-04-16T06:29:08;6.15;;;3.80;;
60612;SDS011;46443;59.792;17.626;2023-04-16T06:31:35;7.03;;;3.70;;
60612;SDS011;46443;59.792;17.626;2023-04-16T06:34:01;7.03;;;4.07;;
60612;SDS011;46443;59.792;17.626;2023-04-16T06:36:27;9.68;;;4.70;;
60612;SDS011;46443;59.792;17.626;2023-04-16T06:38:53;7.60;;;3.92;;
60612;SDS011;46443;59.792;17.626;2023-04-16T06:41:20;8.45;;;4.35;;
60612;SDS011;46443;59.792;17.626;2023-04-16T06:43:46;6.85;;;3.60;;
60612;SDS011;46443;59.792;17.626;2023-04-16T06:46:12;8.35;;;4.47;;
60612;SDS011;46443;59.792;17.626;2023-04-16T06:48:38;8.32;;;4.05;;
60612;SDS011;46443;59.792;17.626;2023-04-16T06:51:05;10.23;;;4.15;;
60612;SDS011;46443;59.792;17.626;2023-04-16T06:53:31;6.53;;;3.85;;
60612;SDS011;46443;59.792;17.626;2023-04-16T06:55:57;6.22;;;3.55;;
60612;SDS011;46443;59.792;17.626;2023-04-16T06:58:23;11.25;;;4.22;;
60612;SDS011;46443;59.792;17.626;2023-04-16T07:00:49;6.78;;;3.50;;
60612;SDS011;46443;59.792;17.626;2023-04-16T07:03:15;6.35;;;3.65;;
60612;SDS011;46443;59.792;17.626;2023-04-16T07:05:41;6.75;;;3.95;;
60612;SDS011;46443;59.792;17.626;2023-04-16T07:08:07;7.78;;;4.35;;
60612;SDS011;46443;59.792;17.626;2023-04-16T07:10:33;6.93;;;3.60;;
60612;SDS011;46443;59.792;17.626;2023-04-16T07:12:59;6.47;;;4.03;;
60612;SDS011;46443;59.792;17.626;2023-04-16T07:15:26;6.45;;;3.58;;
60612;SDS011;46443;59.792;17.626;2023-04-16T07:17:52;7.45;;;4.25;;
60612;SDS011;46443;59.792;17.626;2023-04-16T07:20:18;7.22;;;3.45;;
60612;SDS011;46443;59.792;17.626;2023-04-16T07:22:44;8.32;;;3.53;;
60612;SDS011;46443;59.792;17.626;2023-04-16T07:25:10;7.22;;;3.75;;
60612;SDS011;46443;59.792;17.626;2023-04-16T07:27:36;7.35;;;3.70;;
60612;SDS011;46443;59.792;17.626;2023-04-16T07:30:02;5.63;;;3.17;;
60612;SDS011;46443;59.792;17.626;2023-04-16T07:32:28;6.30;;;3.58;;
60612;SDS011;46443;59.792;17.626;2023-04-16T07:34:55;7.88;;;4.03;;
60612;SDS011;46443;59.792;17.626;2023-04-16T07:37:21;8.13;;;3.72;;
60612;SDS011;46443;59.792;17.626;2023-04-16T07:39:47;8.30;;;3.33;;
60612;SDS011;46443;59.792;17.626;2023-04-16T07:42:13;5.87;;;3.50;;
60612;SDS011;46443;59.792;17.626;2023-04-16T07:44:39;8.50;;;3.63;;
60612;SDS011;46443;59.792;17.626;2023-04-16T07:47:05;8.63;;;3.80;;
60612;SDS011;46443;59.792;17.626;2023-04-16T07:49:31;5.37;;;3.20;;
60612;SDS011;46443;59.792;17.626;2023-04-16T07:51:57;7.90;;;3.30;;
60612;SDS011;46443;59.792;17.626;2023-04-16T07:54:23;5.97;;;3.90;;
60612;SDS011;46443;59.792;17.626;2023-04-16T07:56:50;8.97;;;3.60;;
60612;SDS011;46443;59.792;17.626;2023-04-16T07:59:16;7.53;;;3.33;;
60612;SDS011;46443;59.792;17.626;2023-04-16T08:01:43;6.77;;;3.00;;
60612;SDS011;46443;59.792;17.626;2023-04-16T08:04:09;6.77;;;3.20;;
60612;SDS011;46443;59.792;17.626;2023-04-16T08:06:35;5.90;;;2.90;;
60612;SDS011;46443;59.792;17.626;2023-04-16T08:09:01;5.63;;;3.00;;
60612;SDS011;46443;59.792;17.626;2023-04-16T08:11:27;6.70;;;3.30;;
60612;SDS011;46443;59.792;17.626;2023-04-16T08:13:53;6.93;;;2.80;;
60612;SDS011;46443;59.792;17.626;2023-04-16T08:16:19;5.53;;;3.47;;
60612;SDS011;46443;59.792;17.626;2023-04-16T08:18:45;7.07;;;3.00;;
60612;SDS011;46443;59.792;17.626;2023-04-16T08:21:11;4.43;;;2.40;;
60612;SDS011;46443;59.792;17.626;2023-04-16T08:23:38;5.77;;;2.90;;
60612;SDS011;46443;59.792;17.626;2023-04-16T08:26:04;6.20;;;3.50;;
60612;SDS011;46443;59.792;17.626;2023-04-16T08:28:30;6.43;;;3.10;;
60612;SDS011;46443;59.792;17.626;2023-04-16T08:30:56;5.07;;;2.70;;
60612;SDS011;46443;59.792;17.626;2023-04-16T08:33:22;4.53;;;2.50;;
60612;SDS011;46443;59.792;17.626;2023-04-16T08:35:48;5.67;;;3.10;;
60612;SDS011;46443;59.792;17.626;2023-04-16T08:38:14;8.17;;;2.70;;
60612;SDS011;46443;59.792;17.626;2023-04-16T08:40:41;4.83;;;2.83;;
60612;SDS011;46443;59.792;17.626;2023-04-16T08:43:10;5.17;;;2.83;;
60612;SDS011;46443;59.792;17.626;2023-04-16T08:45:37;6.70;;;3.00;;
60612;SDS011;46443;59.792;17.626;2023-04-16T08:48:06;5.25;;;2.80;;
60612;SDS011;46443;59.792;17.626;2023-04-16T08:50:32;5.03;;;2.87;;
60612;SDS011;46443;59.792;17.626;2023-04-16T08:53:03;5.70;;;2.90;;
60612;SDS011;46443;59.792;17.626;2023-04-16T08:55:40;4.27;;;2.70;;
60612;SDS011;46443;59.792;17.626;2023-04-16T08:58:11;5.20;;;2.60;;
60612;SDS011;46443;59.792;17.626;2023-04-16T09:00:38;6.43;;;3.33;;
60612;SDS011;46443;59.792;17.626;2023-04-16T09:03:08;6.18;;;2.80;;
60612;SDS011;46443;59.792;17.626;2023-04-16T09:05:35;4.30;;;2.70;;
60612;SDS011;46443;59.792;17.626;2023-04-16T09:08:01;4.70;;;2.67;;
60612;SDS011;46443;59.792;17.626;2023-04-16T09:10:27;5.33;;;2.90;;
60612;SDS011;46443;59.792;17.626;2023-04-16T09:12:56;3.70;;;2.70;;
60612;SDS011;46443;59.792;17.626;2023-04-16T09:15:22;6.18;;;2.85;;
60612;SDS011;46443;59.792;17.626;2023-04-16T09:17:52;4.88;;;3.13;;
60612;SDS011;46443;59.792;17.626;2023-04-16T09:20:18;8.63;;;2.70;;
60612;SDS011;46443;59.792;17.626;2023-04-16T09:22:45;5.03;;;2.60;;
60612;SDS011;46443;59.792;17.626;2023-04-16T09:25:11;5.20;;;2.70;;
60612;SDS011;46443;59.792;17.626;2023-04-16T09:27:37;4.63;;;3.20;;
60612;SDS011;46443;59.792;17.626;2023-04-16T09:30:24;7.80;;;3.23;;
60612;SDS011;46443;59.792;17.626;2023-04-16T09:32:51;7.20;;;2.80;;
60612;SDS011;46443;59.792;17.626;2023-04-16T09:35:18;5.20;;;2.70;;
60612;SDS011;46443;59.792;17.626;2023-04-16T09:37:53;5.43;;;2.70;;
60612;SDS011;46443;59.792;17.626;2023-04-16T09:40:23;5.03;;;2.60;;
60612;SDS011;46443;59.792;17.626;2023-04-16T09:42:50;5.25;;;2.80;;
60612;SDS011;46443;59.792;17.626;2023-04-16T09:45:17;5.77;;;3.10;;
60612;SDS011;46443;59.792;17.626;2023-04-16T09:47:43;4.50;;;2.80;;
60612;SDS011;46443;59.792;17.626;2023-04-16T09:50:17;4.70;;;2.60;;
60612;SDS011;46443;59.792;17.626;2023-04-16T09:52:44;5.27;;;2.60;;
60612;SDS011;46443;59.792;17.626;2023-04-16T09:55:10;6.10;;;2.60;;
60612;SDS011;46443;59.792;17.626;2023-04-16T09:57:36;4.63;;;2.70;;
60612;SDS011;46443;59.792;17.626;2023-04-16T10:00:03;5.23;;;2.60;;
60612;SDS011;46443;59.792;17.626;2023-04-16T10:02:30;4.57;;;2.73;;
60612;SDS011;46443;59.792;17.626;2023-04-16T10:04:59;5.97;;;2.67;;
60612;SDS011;46443;59.792;17.626;2023-04-16T10:07:30;4.30;;;2.80;;
60612;SDS011;46443;59.792;17.626;2023-04-16T10:09:57;10.23;;;3.00;;
60612;SDS011;46443;59.792;17.626;2023-04-16T10:12:23;5.50;;;2.77;;
60612;SDS011;46443;59.792;17.626;2023-04-16T10:14:51;7.37;;;3.47;;
60612;SDS011;46443;59.792;17.626;2023-04-16T10:17:17;4.93;;;2.73;;
60612;SDS011;46443;59.792;17.626;2023-04-16T10:19:43;5.50;;;2.63;;
60612;SDS011;46443;59.792;17.626;2023-04-16T10:22:10;4.37;;;2.60;;
60612;SDS011;46443;59.792;17.626;2023-04-16T10:24:36;6.03;;;2.60;;
60612;SDS011;46443;59.792;17.626;2023-04-16T10:27:03;5.40;;;2.60;;
60612;SDS011;46443;59.792;17.626;2023-04-16T10:29:29;4.57;;;2.63;;
60612;SDS011;46443;59.792;17.626;2023-04-16T10:31:56;5.93;;;2.83;;
60612;SDS011;46443;59.792;17.626;2023-04-16T10:34:23;5.73;;;2.70;;
60612;SDS011;46443;59.792;17.626;2023-04-16T10:36:50;5.23;;;2.33;;
60612;SDS011;46443;59.792;17.626;2023-04-16T10:39:20;5.38;;;2.50;;
60612;SDS011;46443;59.792;17.626;2023-04-16T10:41:46;6.73;;;2.83;;
60612;SDS011;46443;59.792;17.626;2023-04-16T10:44:14;5.80;;;2.60;;
60612;SDS011;46443;59.792;17.626;2023-04-16T10:46:42;4.73;;;2.70;;
60612;SDS011;46443;59.792;17.626;2023-04-16T10:49:12;4.40;;;2.50;;
60612;SDS011;46443;59.792;17.626;2023-04-16T10:51:39;4.90;;;2.70;;
60612;SDS011;46443;59.792;17.626;2023-04-16T10:56:36;4.53;;;2.70;;
60612;SDS011;46443;59.792;17.626;2023-04-16T10:59:06;5.40;;;2.40;;
60612;SDS011;46443;59.792;17.626;2023-04-16T11:01:33;4.80;;;2.65;;
60612;SDS011;46443;59.792;17.626;2023-04-16T11:12:15;4.57;;;3.03;;
60612;SDS011;46443;59.792;17.626;2023-04-16T11:14:43;3.97;;;2.50;;
60612;SDS011;46443;59.792;17.626;2023-04-16T11:17:11;6.97;;;3.22;;
60612;SDS011;46443;59.792;17.626;2023-04-16T11:19:37;6.13;;;2.80;;
60612;SDS011;46443;59.792;17.626;2023-04-16T11:22:04;5.23;;;2.80;;
60612;SDS011;46443;59.792;17.626;2023-04-16T11:24:33;3.97;;;2.50;;
60612;SDS011;46443;59.792;17.626;2023-04-16T11:29:27;5.37;;;2.90;;
60612;SDS011;46443;59.792;17.626;2023-04-16T11:31:53;5.10;;;2.60;;
60612;SDS011;46443;59.792;17.626;2023-04-16T11:34:20;6.63;;;2.80;;
60612;SDS011;46443;59.792;17.626;2023-04-16T11:36:47;5.37;;;3.10;;
60612;SDS011;46443;59.792;17.626;2023-04-16T11:39:14;6.87;;;3.10;;
60612;SDS011;46443;59.792;17.626;2023-04-16T11:44:17;4.63;;;2.63;;
60612;SDS011;46443;59.792;17.626;2023-04-16T11:46:43;4.33;;;2.57;;
60612;SDS011;46443;59.792;17.626;2023-04-16T11:49:09;4.83;;;2.97;;
60612;SDS011;46443;59.792;17.626;2023-04-16T11:51:39;4.90;;;2.80;;
60612;SDS011;46443;59.792;17.626;2023-04-16T11:54:05;4.70;;;2.90;;
60612;SDS011;46443;59.792;17.626;2023-04-16T11:56:33;4.93;;;3.27;;
60612;SDS011;46443;59.792;17.626;2023-04-16T12:01:33;5.50;;;2.73;;
60612;SDS011;46443;59.792;17.626;2023-04-16T12:04:00;7.07;;;2.43;;
60612;SDS011;46443;59.792;17.626;2023-04-16T12:06:26;6.57;;;2.80;;
60612;SDS011;46443;59.792;17.626;2023-04-16T12:08:52;7.20;;;2.83;;
60612;SDS011;46443;59.792;17.626;2023-04-16T12:11:19;5.93;;;2.63;;
60612;SDS011;46443;59.792;17.626;2023-04-16T12:16:30;5.50;;;2.50;;
60612;SDS011;46443;59.792;17.626;2023-04-16T12:18:59;4.40;;;2.33;;
60612;SDS011;46443;59.792;17.626;2023-04-16T12:21:43;5.03;;;2.70;;
60612;SDS011;46443;59.792;17.626;2023-04-16T12:24:10;5.30;;;2.70;;
60612;SDS011;46443;59.792;17.626;2023-04-16T12:26:43;4.40;;;2.60;;
60612;SDS011;46443;59.792;17.626;2023-04-16T12:31:40;4.32;;;2.90;;
60612;SDS011;46443;59.792;17.626;2023-04-16T12:34:06;6.57;;;2.70;;
60612;SDS011;46443;59.792;17.626;2023-04-16T12:36:32;4.47;;;2.50;;
60612;SDS011;46443;59.792;17.626;2023-04-16T12:38:58;5.00;;;2.50;;
60612;SDS011;46443;59.792;17.626;2023-04-16T12:41:24;4.70;;;2.50;;
60612;SDS011;46443;59.792;17.626;2023-04-16T12:43:50;4.07;;;2.53;;
60612;SDS011;46443;59.792;17.626;2023-04-16T12:46:16;4.40;;;2.80;;
60612;SDS011;46443;59.792;17.626;2023-04-16T12:48:42;5.13;;;2.60;;
60612;SDS011;46443;59.792;17.626;2023-04-16T12:51:08;4.80;;;2.80;;
60612;SDS011;46443;59.792;17.626;2023-04-16T12:53:34;6.13;;;2.57;;
60612;SDS011;46443;59.792;17.626;2023-04-16T12:56:00;3.50;;;2.40;;
60612;SDS011;46443;59.792;17.626;2023-04-16T12:58:26;4.50;;;2.40;;
60612;SDS011;46443;59.792;17.626;2023-04-16T13:00:52;4.90;;;2.60;;
60612;SDS011;46443;59.792;17.626;2023-04-16T13:03:19;6.57;;;2.53;;
60612;SDS011;46443;59.792;17.626;2023-04-16T13:05:45;5.93;;;2.60;;
60612;SDS011;46443;59.792;17.626;2023-04-16T13:08:11;8.97;;;3.00;;
60612;SDS011;46443;59.792;17.626;2023-04-16T13:10:37;4.50;;;2.60;;
60612;SDS011;46443;59.792;17.626;2023-04-16T13:13:04;4.77;;;2.40;;
60612;SDS011;46443;59.792;17.626;2023-04-16T13:15:30;4.13;;;2.40;;
60612;SDS011;46443;59.792;17.626;2023-04-16T13:17:56;4.27;;;2.53;;
60612;SDS011;46443;59.792;17.626;2023-04-16T13:20:22;6.73;;;2.67;;
60612;SDS011;46443;59.792;17.626;2023-04-16T13:22:48;4.47;;;2.67;;
60612;SDS011;46443;59.792;17.626;2023-04-16T13:25:14;4.47;;;2.60;;
60612;SDS011;46443;59.792;17.626;2023-04-16T13:27:40;4.87;;;2.40;;
60612;SDS011;46443;59.792;17.626;2023-04-16T13:30:06;4.20;;;2.50;;
60612;SDS011;46443;59.792;17.626;2023-04-16T13:32:32;5.17;;;2.50;;
60612;SDS011;46443;59.792;17.626;2023-04-16T13:34:58;5.73;;;2.60;;
60612;SDS011;46443;59.792;17.626;2023-04-16T13:37:24;8.77;;;2.97;;
60612;SDS011;46443;59.792;17.626;2023-04-16T13:39:51;4.70;;;2.33;;
60612;SDS011;46443;59.792;17.626;2023-04-16T13:42:17;4.13;;;2.50;;
60612;SDS011;46443;59.792;17.626;2023-04-16T13:44:43;5.37;;;2.73;;
60612;SDS011;46443;59.792;17.626;2023-04-16T13:47:12;4.78;;;2.78;;
60612;SDS011;46443;59.792;17.626;2023-04-16T13:49:38;4.13;;;2.50;;
60612;SDS011;46443;59.792;17.626;2023-04-16T13:52:04;5.60;;;2.40;;
60612;SDS011;46443;59.792;17.626;2023-04-16T13:54:30;4.47;;;2.50;;
60612;SDS011;46443;59.792;17.626;2023-04-16T13:56:56;5.83;;;2.77;;
60612;SDS011;46443;59.792;17.626;2023-04-16T13:59:22;3.93;;;2.70;;
60612;SDS011;46443;59.792;17.626;2023-04-16T14:01:49;4.93;;;2.70;;
60612;SDS011;46443;59.792;17.626;2023-04-16T14:04:15;5.93;;;2.93;;
60612;SDS011;46443;59.792;17.626;2023-04-16T14:06:41;4.67;;;2.40;;
60612;SDS011;46443;59.792;17.626;2023-04-16T14:09:07;5.10;;;2.70;;
60612;SDS011;46443;59.792;17.626;2023-04-16T14:11:35;5.63;;;2.50;;
60612;SDS011;46443;59.792;17.626;2023-04-16T14:14:01;4.60;;;2.47;;
60612;SDS011;46443;59.792;17.626;2023-04-16T14:16:27;3.83;;;2.40;;
60612;SDS011;46443;59.792;17.626;2023-04-16T14:18:53;7.20;;;2.93;;
60612;SDS011;46443;59.792;17.626;2023-04-16T14:21:19;4.77;;;2.60;;
60612;SDS011;46443;59.792;17.626;2023-04-16T14:23:45;4.17;;;2.40;;
60612;SDS011;46443;59.792;17.626;2023-04-16T14:26:11;5.13;;;2.50;;
60612;SDS011;46443;59.792;17.626;2023-04-16T14:28:37;4.90;;;2.50;;
60612;SDS011;46443;59.792;17.626;2023-04-16T14:31:04;5.63;;;2.57;;
60612;SDS011;46443;59.792;17.626;2023-04-16T14:33:30;4.33;;;2.40;;
60612;SDS011;46443;59.792;17.626;2023-04-16T14:35:57;4.37;;;2.40;;
60612;SDS011;46443;59.792;17.626;2023-04-16T14:38:23;6.83;;;2.50;;
60612;SDS011;46443;59.792;17.626;2023-04-16T14:40:49;4.23;;;2.63;;
60612;SDS011;46443;59.792;17.626;2023-04-16T14:43:15;5.77;;;2.70;;
60612;SDS011;46443;59.792;17.626;2023-04-16T14:45:41;4.33;;;2.70;;
60612;SDS011;46443;59.792;17.626;2023-04-16T14:48:07;4.80;;;2.37;;
60612;SDS011;46443;59.792;17.626;2023-04-16T14:50:33;4.50;;;2.33;;
60612;SDS011;46443;59.792;17.626;2023-04-16T14:53:07;4.37;;;2.50;;